createdAt,value
2018-06-12T00:01:09.392Z,14.93
2018-06-12T00:03:48.870Z,15.80
2018-06-12T00:06:32.932Z,15.33
2018-06-12T00:09:20.739Z,15.20
2018-06-12T00:11:52.938Z,15.53
2018-06-12T00:14:34.360Z,13.93
2018-06-12T00:17:18.371Z,14.20
2018-06-12T00:19:59.987Z,13.10
2018-06-12T00:22:35.110Z,14.00
2018-06-12T00:25:20.575Z,13.90
2018-06-12T00:28:05.668Z,13.77
2018-06-12T00:30:37.478Z,14.33
2018-06-12T00:33:19.930Z,14.90
2018-06-12T00:36:04.530Z,14.87
2018-06-12T00:38:49.148Z,15.10
2018-06-12T00:41:25.402Z,16.57
2018-06-12T00:43:55.417Z,14.93
2018-06-12T00:46:34.405Z,16.47
2018-06-12T00:49:18.811Z,15.17
2018-06-12T00:51:49.777Z,16.20
2018-06-12T00:54:20.317Z,17.10
2018-06-12T00:57:15.704Z,17.90
2018-06-12T01:00:05.470Z,17.70
2018-06-12T01:02:36.980Z,16.47
2018-06-12T01:05:07.500Z,17.70
2018-06-12T01:07:54.073Z,17.90
2018-06-12T01:10:40.353Z,18.80
2018-06-12T01:13:17.548Z,19.20
2018-06-12T01:16:00.490Z,18.23
2018-06-12T01:18:46.226Z,19.27
2018-06-12T01:21:34.551Z,17.50
2018-06-12T01:24:06.704Z,20.10
2018-06-12T01:26:50.083Z,22.30
2018-06-12T01:29:30.145Z,21.40
2018-06-12T01:32:10.590Z,22.07
2018-06-12T01:34:41.742Z,21.70
2018-06-12T01:37:22.621Z,22.50
2018-06-12T01:40:05.435Z,24.40
2018-06-12T01:42:43.519Z,22.17
2018-06-12T01:45:13.773Z,20.10
2018-06-12T01:47:54.575Z,20.97
2018-06-12T01:50:37.693Z,22.10
2018-06-12T01:56:01.200Z,22.20
2018-06-12T01:58:44.730Z,22.80
2018-06-12T02:01:27.919Z,23.17
2018-06-12T02:04:03.673Z,21.10
2018-06-12T02:06:34.452Z,20.30
2018-06-12T02:15:03.909Z,20.80
2018-06-12T02:17:46.965Z,19.33
2018-06-12T02:20:32.690Z,20.60
2018-06-12T02:23:16.246Z,15.83
2018-06-12T02:25:51.145Z,18.93
2018-06-12T02:28:37.256Z,18.50
2018-06-12T02:31:19.817Z,20.03
2018-06-12T02:34:05.287Z,18.80
2018-06-12T02:36:36.191Z,19.47
2018-06-12T02:39:24.053Z,19.90
2018-06-12T02:42:05.673Z,19.10
2018-06-12T02:44:44.064Z,18.77
2018-06-12T02:47:14.152Z,17.87
2018-06-12T02:50:01.833Z,17.13
2018-06-12T02:52:45.999Z,18.93
2018-06-12T02:55:22.211Z,20.17
2018-06-12T02:58:11.967Z,20.37
2018-06-12T03:00:59.638Z,21.53
2018-06-12T03:03:41.969Z,17.90
2018-06-12T03:06:13.044Z,19.20
2018-06-12T03:08:56.792Z,17.63
2018-06-12T03:11:42.745Z,23.17
2018-06-12T03:14:36.424Z,21.57
2018-06-12T03:17:08.313Z,21.57
2018-06-12T03:19:55.399Z,18.93
2018-06-12T03:22:35.649Z,17.63
2018-06-12T03:25:14.621Z,20.40
2018-06-12T03:27:51.210Z,20.40
2018-06-12T03:30:33.990Z,19.67
2018-06-12T03:33:11.330Z,18.20
2018-06-12T03:35:48.376Z,18.20
2018-06-12T03:38:26.352Z,18.00
2018-06-12T03:44:19.710Z,22.20
2018-06-12T03:46:54.532Z,21.97
2018-06-12T03:49:29.827Z,22.73
2018-06-12T03:52:18.573Z,24.17
2018-06-12T03:54:58.844Z,24.40
2018-06-12T03:57:30.692Z,21.83
2018-06-12T04:00:08.706Z,16.90
2018-06-12T04:02:49.061Z,19.87
2018-06-12T04:05:26.672Z,20.50
2018-06-12T04:08:04.900Z,23.30
2018-06-12T04:10:35.331Z,22.87
2018-06-12T04:13:05.063Z,21.87
2018-06-12T04:15:34.641Z,20.30
2018-06-12T04:18:08.303Z,18.47
2018-06-12T04:20:37.992Z,21.40
2018-06-12T04:23:20.345Z,20.60
2018-06-12T04:25:59.094Z,22.37
2018-06-12T04:28:31.013Z,23.27
2018-06-12T04:31:00.570Z,21.77
2018-06-12T04:33:39.709Z,21.30
2018-06-12T04:36:18.112Z,21.37
2018-06-12T04:38:51.027Z,21.20
2018-06-12T04:41:20.791Z,20.90
2018-06-12T04:43:59.130Z,19.50
2018-06-12T04:46:45.429Z,20.77
2018-06-12T04:49:21.244Z,21.37
2018-06-12T04:51:57.785Z,20.73
2018-06-12T04:54:29.977Z,21.87
2018-06-12T04:56:59.110Z,19.93
2018-06-12T04:59:38.661Z,21.17
2018-06-12T05:02:20.913Z,20.00
2018-06-12T05:05:08.827Z,21.50
2018-06-12T05:07:44.740Z,21.03
2018-06-12T05:10:20.705Z,20.13
2018-06-12T05:12:53.549Z,21.63
2018-06-12T05:15:40.994Z,20.20
2018-06-12T05:18:21.865Z,20.00
2018-06-12T05:20:58.150Z,20.37
2018-06-12T05:23:28.339Z,20.70
2018-06-12T05:26:08.498Z,19.47
2018-06-12T05:28:59.042Z,19.03
2018-06-12T05:31:29.970Z,18.50
2018-06-12T05:34:07.342Z,17.20
2018-06-12T05:36:48.475Z,17.67
2018-06-12T05:39:18.647Z,18.50
2018-06-12T05:41:48.667Z,15.53
2018-06-12T05:44:18.124Z,16.27
2018-06-12T05:46:47.901Z,16.43
2018-06-12T05:49:18.058Z,14.40
2018-06-12T05:51:47.701Z,14.40
2018-06-12T05:54:17.263Z,14.60
2018-06-12T05:56:47.814Z,13.27
2018-06-12T05:59:24.952Z,13.97
2018-06-12T06:02:01.559Z,13.23
2018-06-12T06:04:32.949Z,11.97
2018-06-12T06:07:13.611Z,10.77
2018-06-12T06:09:53.439Z,11.77
2018-06-12T06:12:29.643Z,11.27
2018-06-12T06:15:00.410Z,12.50
2018-06-12T06:17:30.845Z,11.60
2018-06-12T06:20:00.387Z,12.27
2018-06-12T06:22:30.877Z,9.73
2018-06-12T06:25:01.275Z,10.30
2018-06-12T06:27:33.778Z,10.97
2018-06-12T06:30:05.147Z,11.53
2018-06-12T06:32:36.297Z,10.50
2018-06-12T06:35:05.780Z,10.60
2018-06-12T06:37:35.368Z,10.37
2018-06-12T06:40:05.699Z,10.20
2018-06-12T06:42:35.859Z,10.50
2018-06-12T06:45:07.196Z,9.90
2018-06-12T06:47:37.183Z,10.17
2018-06-12T06:50:08.790Z,10.93
2018-06-12T06:52:39.128Z,9.10
2018-06-12T06:55:09.935Z,9.17
2018-06-12T06:57:40.562Z,8.93
2018-06-12T07:00:10.627Z,9.13
2018-06-12T07:02:40.143Z,9.63
2018-06-12T07:05:09.594Z,8.93
2018-06-12T07:07:42.940Z,8.43
2018-06-12T07:10:12.386Z,8.27
2018-06-12T07:12:42.262Z,8.60
2018-06-12T07:15:12.287Z,8.30
2018-06-12T07:17:42.272Z,7.90
2018-06-12T07:20:19.096Z,8.20
2018-06-12T07:22:49.541Z,6.93
2018-06-12T07:25:18.978Z,7.10
2018-06-12T07:27:50.777Z,7.90
2018-06-12T07:30:20.246Z,7.60
2018-06-12T07:32:49.800Z,8.33
2018-06-12T07:35:19.234Z,8.07
2018-06-12T07:37:49.059Z,8.20
2018-06-12T07:40:18.519Z,7.90
2018-06-12T07:42:47.980Z,7.10
2018-06-12T07:45:18.809Z,7.23
2018-06-12T07:47:48.270Z,8.10
2018-06-12T07:50:17.775Z,7.00
2018-06-12T07:52:47.746Z,7.87
2018-06-12T07:55:17.186Z,7.77
2018-06-12T07:57:46.650Z,7.13
2018-06-12T08:00:16.941Z,6.77
2018-06-12T08:02:46.765Z,6.40
2018-06-12T08:05:15.829Z,7.13
2018-06-12T08:07:46.110Z,6.60
2018-06-12T08:10:15.575Z,7.13
2018-06-12T08:12:45.055Z,6.93
2018-06-12T08:15:15.339Z,6.90
2018-06-12T08:17:44.769Z,6.93
2018-06-12T08:20:14.268Z,6.80
2018-06-12T08:22:44.681Z,8.20
2018-06-12T08:25:14.132Z,7.80
2018-06-12T08:27:43.589Z,8.40
2018-06-12T08:30:15.020Z,8.27
2018-06-12T08:32:44.420Z,8.20
2018-06-12T08:35:13.876Z,8.77
2018-06-12T08:37:48.027Z,7.90
2018-06-12T08:40:18.123Z,6.50
2018-06-12T08:42:48.385Z,7.97
2018-06-12T08:45:18.140Z,7.73
2018-06-12T08:47:47.669Z,7.70
2018-06-12T08:50:17.736Z,7.07
2018-06-12T08:52:47.169Z,6.80
2018-06-12T08:55:16.663Z,6.10
2018-06-12T08:57:47.451Z,6.80
2018-06-12T09:00:16.905Z,6.23
2018-06-12T09:02:46.420Z,6.47
2018-06-12T09:05:16.814Z,7.03
2018-06-12T09:07:46.300Z,6.60
2018-06-12T09:10:15.750Z,7.27
2018-06-12T09:12:45.820Z,6.73
2018-06-12T09:15:15.335Z,6.50
2018-06-12T09:17:44.770Z,7.50
2018-06-12T09:20:14.990Z,7.77
2018-06-12T09:22:44.452Z,7.17
2018-06-12T09:25:13.982Z,6.20
2018-06-12T09:27:48.541Z,7.13
2018-06-12T09:30:20.289Z,6.80
2018-06-12T09:32:49.816Z,8.30
2018-06-12T09:35:19.312Z,6.10
2018-06-12T09:37:49.409Z,6.83
2018-06-12T09:40:18.889Z,6.80
2018-06-12T09:42:48.395Z,6.00
2018-06-12T09:45:18.401Z,5.80
2018-06-12T09:47:47.870Z,4.87
2018-06-12T09:50:17.386Z,5.60
2018-06-12T09:52:47.685Z,4.70
2018-06-12T09:55:17.107Z,5.33
2018-06-12T09:57:46.584Z,5.33
2018-06-12T10:00:21.158Z,4.77
2018-06-12T10:02:50.695Z,5.50
2018-06-12T10:05:20.231Z,4.23
2018-06-12T10:07:50.405Z,4.70
2018-06-12T10:10:19.837Z,4.80
2018-06-12T10:12:49.309Z,5.30
2018-06-12T10:15:19.336Z,4.33
2018-06-12T10:17:48.845Z,5.03
2018-06-12T10:20:18.366Z,4.53
2018-06-12T10:22:48.755Z,5.00
2018-06-12T10:25:18.210Z,5.27
2018-06-12T10:27:47.682Z,4.90
2018-06-12T10:30:18.028Z,4.70
2018-06-12T10:32:48.045Z,5.37
2018-06-12T10:35:17.529Z,4.87
2018-06-12T10:37:47.652Z,5.03
2018-06-12T10:40:17.130Z,5.63
2018-06-12T10:42:46.567Z,5.63
2018-06-12T10:45:16.513Z,4.70
2018-06-12T10:47:46.148Z,5.47
2018-06-12T10:50:15.620Z,4.57
2018-06-12T10:52:45.487Z,5.00
2018-06-12T10:55:16.165Z,4.97
2018-06-12T10:57:45.700Z,5.40
2018-06-12T11:00:15.145Z,5.53
2018-06-12T11:02:45.005Z,5.00
2018-06-12T11:05:14.488Z,4.73
2018-06-12T11:07:43.887Z,4.47
2018-06-12T11:10:14.947Z,4.30
2018-06-12T11:12:45.021Z,4.33
2018-06-12T11:15:15.820Z,4.10
2018-06-12T11:17:46.281Z,4.77
2018-06-12T11:20:16.940Z,5.20
2018-06-12T11:22:47.092Z,5.13
2018-06-12T11:25:18.528Z,5.20
2018-06-12T11:27:48.458Z,5.00
2018-06-12T11:30:18.647Z,4.40
2018-06-12T11:32:48.952Z,4.70
2018-06-12T11:35:25.996Z,4.87
2018-06-12T11:37:56.305Z,3.80
2018-06-12T11:40:34.006Z,4.33
2018-06-12T11:43:04.128Z,5.00
2018-06-12T11:45:41.530Z,4.33
2018-06-12T11:48:20.651Z,4.23
2018-06-12T11:50:56.418Z,4.23
2018-06-12T11:53:26.348Z,4.40
2018-06-12T11:56:04.497Z,4.37
2018-06-12T11:58:40.879Z,3.70
2018-06-12T12:01:11.133Z,4.67
2018-06-12T12:03:40.537Z,4.23
2018-06-12T12:06:18.257Z,4.03
2018-06-12T12:08:49.882Z,4.07
2018-06-12T12:11:19.447Z,3.77
2018-06-12T12:13:49.351Z,4.10
2018-06-12T12:16:21.757Z,3.97
2018-06-12T12:18:54.782Z,4.40
2018-06-12T12:21:24.495Z,3.67
2018-06-12T12:23:54.946Z,4.00
2018-06-12T12:26:36.709Z,4.43
2018-06-12T12:29:07.668Z,5.20
2018-06-12T12:31:38.971Z,4.00
2018-06-12T12:34:11.539Z,5.10
2018-06-12T12:36:43.538Z,4.90
2018-06-12T12:39:14.042Z,3.80
2018-06-12T12:41:43.560Z,5.50
2018-06-12T12:44:13.002Z,5.03
2018-06-12T12:46:49.500Z,5.00
2018-06-12T12:49:21.466Z,4.53
2018-06-12T12:51:52.080Z,4.63
2018-06-12T12:54:21.545Z,4.10
2018-06-12T12:56:57.718Z,5.10
2018-06-12T12:59:38.799Z,5.00
2018-06-12T13:02:10.494Z,4.70
2018-06-12T13:04:48.466Z,3.97
2018-06-12T13:07:26.793Z,4.57
2018-06-12T13:09:57.083Z,6.00
2018-06-12T13:12:35.245Z,5.43
2018-06-12T13:15:05.867Z,4.50
2018-06-12T13:17:36.418Z,5.53
2018-06-12T13:20:05.929Z,5.73
2018-06-12T13:22:43.676Z,4.90
2018-06-12T13:25:21.443Z,5.27
2018-06-12T13:27:58.967Z,7.20
2018-06-12T13:30:28.955Z,5.40
2018-06-12T13:33:05.115Z,6.00
2018-06-12T13:35:35.845Z,11.47
2018-06-12T13:38:14.604Z,5.70
2018-06-12T13:40:51.663Z,5.77
2018-06-12T13:43:25.853Z,4.90
2018-06-12T13:45:57.077Z,5.80
2018-06-12T13:48:33.330Z,5.53
2018-06-12T13:51:12.640Z,5.40
2018-06-12T13:53:50.827Z,4.90
2018-06-12T13:56:22.016Z,5.23
2018-06-12T13:59:00.080Z,5.40
2018-06-12T14:01:38.761Z,5.50
2018-06-12T14:04:08.873Z,4.80
2018-06-12T14:06:39.208Z,4.50
2018-06-12T14:09:15.556Z,5.33
2018-06-12T14:11:53.580Z,5.23
2018-06-12T14:14:23.765Z,5.40
2018-06-12T14:16:54.022Z,5.20
2018-06-12T14:19:36.242Z,5.10
2018-06-12T14:22:15.681Z,4.90
2018-06-12T14:24:45.767Z,5.60
2018-06-12T14:27:24.472Z,6.20
2018-06-12T14:30:01.063Z,5.70
2018-06-12T14:32:32.496Z,5.80
2018-06-12T14:35:02.018Z,5.80
2018-06-12T14:37:43.095Z,6.70
2018-06-12T14:40:20.962Z,5.40
2018-06-12T14:42:52.005Z,5.27
2018-06-12T14:45:29.802Z,4.60
2018-06-12T14:48:09.907Z,4.93
2018-06-12T14:50:40.054Z,4.67
2018-06-12T14:53:15.539Z,4.47
2018-06-12T14:55:46.483Z,5.43
2018-06-12T14:58:24.945Z,5.50
2018-06-12T15:01:01.078Z,5.60
2018-06-12T15:03:40.876Z,6.43
2018-06-12T15:06:10.859Z,5.90
2018-06-12T15:08:48.917Z,6.13
2018-06-12T15:11:25.821Z,7.17
2018-06-12T15:14:05.982Z,6.87
2018-06-12T15:16:36.327Z,7.43
2018-06-12T15:19:14.428Z,6.87
2018-06-12T15:21:50.514Z,7.40
2018-06-12T15:24:20.869Z,8.03
2018-06-12T15:26:57.371Z,8.30
2018-06-12T15:29:35.176Z,9.30
2018-06-12T15:32:15.069Z,8.83
2018-06-12T15:34:44.808Z,9.00
2018-06-12T15:37:19.884Z,9.97
2018-06-12T15:40:02.297Z,10.27
2018-06-12T15:42:32.451Z,9.60
2018-06-12T15:45:03.249Z,9.10
2018-06-12T15:47:42.672Z,9.20
2018-06-12T15:50:20.972Z,9.20
2018-06-12T15:52:50.946Z,7.90
2018-06-12T15:55:31.071Z,9.27
2018-06-12T15:58:04.771Z,7.70
2018-06-12T16:00:42.802Z,6.80
2018-06-12T16:03:13.581Z,6.90
2018-06-12T16:05:49.503Z,5.70
2018-06-12T16:08:26.616Z,5.63
2018-06-12T16:11:04.776Z,5.53
2018-06-12T16:13:34.887Z,5.23
2018-06-12T16:16:13.520Z,5.03
2018-06-12T16:18:43.653Z,3.70
2018-06-12T16:21:13.936Z,2.80
2018-06-12T16:23:49.372Z,2.50
2018-06-12T16:26:27.087Z,2.97
2018-06-12T16:28:57.139Z,2.73
2018-06-12T16:31:27.394Z,2.67
2018-06-12T16:33:58.634Z,3.10
2018-06-12T16:36:32.540Z,3.40
2018-06-12T16:39:15.168Z,2.90
2018-06-12T16:42:29.217Z,2.70
2018-06-12T16:45:00.201Z,2.83
2018-06-12T16:47:38.567Z,2.70
2018-06-12T16:50:15.836Z,2.90
2018-06-12T16:52:53.069Z,2.57
2018-06-12T16:55:22.558Z,2.87
2018-06-12T16:57:52.015Z,2.97
2018-06-12T17:00:24.568Z,2.90
2018-06-12T17:02:54.058Z,3.90
2018-06-12T17:05:24.566Z,3.37
2018-06-12T17:08:01.640Z,2.60
2018-06-12T17:10:39.649Z,2.90
2018-06-12T17:13:15.559Z,2.80
2018-06-12T17:15:46.020Z,2.70
2018-06-12T17:18:21.980Z,2.80
2018-06-12T17:20:59.174Z,2.73
2018-06-12T17:23:34.190Z,2.77
2018-06-12T17:26:04.902Z,2.60
2018-06-12T17:28:40.151Z,2.83
2018-06-12T17:31:12.538Z,3.10
2018-06-12T17:33:42.117Z,2.60
2018-06-12T17:36:11.683Z,2.47
2018-06-12T17:38:42.008Z,2.90
2018-06-12T17:41:11.584Z,3.63
2018-06-12T17:43:48.550Z,2.67
2018-06-12T17:46:23.669Z,2.60
2018-06-12T17:48:54.795Z,2.47
2018-06-12T17:51:24.837Z,2.40
2018-06-12T17:54:01.035Z,2.70
2018-06-12T17:56:31.091Z,2.40
2018-06-12T17:59:07.975Z,2.43
2018-06-12T18:01:51.426Z,3.50
2018-06-12T18:04:28.289Z,2.43
2018-06-12T18:06:58.194Z,3.20
2018-06-12T18:09:35.113Z,2.90
2018-06-12T18:12:05.134Z,3.33
2018-06-12T18:14:41.721Z,3.33
2018-06-12T18:17:11.721Z,3.40
2018-06-12T18:19:52.063Z,3.27
2018-06-12T18:22:29.651Z,4.03
2018-06-12T18:25:00.893Z,3.90
2018-06-12T18:27:39.637Z,3.03
2018-06-12T18:30:17.839Z,3.40
2018-06-12T18:32:50.060Z,3.50
2018-06-12T18:35:20.134Z,3.60
2018-06-12T18:37:49.661Z,3.50
2018-06-12T18:40:19.328Z,4.17
2018-06-12T18:42:58.872Z,3.30
2018-06-12T18:45:39.124Z,4.10
2018-06-12T18:48:16.084Z,4.30
2018-06-12T18:50:47.535Z,4.57
2018-06-12T18:53:25.994Z,3.77
2018-06-12T18:56:04.056Z,4.47
2018-06-12T18:58:43.949Z,4.40
2018-06-12T19:01:15.193Z,4.50
2018-06-12T19:03:53.580Z,4.30
2018-06-12T19:06:36.531Z,4.40
2018-06-12T19:09:09.231Z,4.30
2018-06-12T19:11:40.209Z,4.20
2018-06-12T19:14:09.806Z,4.83
2018-06-12T19:17:03.504Z,4.47
2018-06-12T19:19:42.630Z,5.00
2018-06-12T19:22:14.837Z,5.40
2018-06-12T19:24:44.448Z,5.07
2018-06-12T19:27:23.843Z,6.93
2018-06-12T19:29:54.126Z,6.27
2018-06-12T19:32:32.327Z,5.90
2018-06-12T19:35:11.031Z,6.07
2018-06-12T19:37:49.422Z,7.80
2018-06-12T19:40:20.278Z,7.80
2018-06-12T19:42:59.766Z,8.23
2018-06-12T19:45:38.493Z,9.30
2018-06-12T19:48:14.729Z,9.60
2018-06-12T19:50:44.210Z,8.03
2018-06-12T19:53:13.650Z,10.23
2018-06-12T19:55:44.107Z,7.90
2018-06-12T19:58:20.606Z,7.00
2018-06-12T20:00:58.476Z,9.00
2018-06-12T20:03:28.637Z,8.73
2018-06-12T20:05:58.655Z,8.03
2018-06-12T20:08:28.288Z,7.47
2018-06-12T20:10:57.872Z,8.90
2018-06-12T20:13:28.494Z,8.27
2018-06-12T20:15:58.351Z,8.57
2018-06-12T20:18:29.127Z,8.17
2018-06-12T20:20:58.797Z,8.30
2018-06-12T20:23:28.553Z,9.57
2018-06-12T20:25:59.406Z,8.33
2018-06-12T20:28:28.971Z,8.97
2018-06-12T20:31:01.107Z,9.27
2018-06-12T20:33:35.129Z,8.90
2018-06-12T20:36:06.239Z,11.10
2018-06-12T20:38:41.312Z,12.97
2018-06-12T20:41:18.632Z,11.03
2018-06-12T20:43:57.647Z,12.00
2018-06-12T20:46:34.785Z,10.80
2018-06-12T20:49:11.280Z,11.07
2018-06-12T20:51:48.810Z,11.17
2018-06-12T20:54:26.110Z,12.03
2018-06-12T20:57:01.892Z,11.77
2018-06-12T20:59:40.627Z,11.80
2018-06-12T21:02:23.981Z,11.50
2018-06-12T21:05:01.785Z,11.70
2018-06-12T21:07:34.007Z,12.40
2018-06-12T21:10:07.846Z,12.10
2018-06-12T21:12:44.873Z,14.07
2018-06-12T21:15:19.325Z,12.87
2018-06-12T21:17:51.854Z,12.17
2018-06-12T21:20:25.503Z,12.93
2018-06-12T21:23:00.695Z,13.93
2018-06-12T21:25:40.881Z,13.67
2018-06-12T21:28:10.766Z,14.40
2018-06-12T21:30:44.962Z,14.43
2018-06-12T21:33:14.722Z,13.47
2018-06-12T21:35:46.982Z,14.23
2018-06-12T21:38:21.765Z,13.90
2018-06-12T21:40:56.705Z,12.90
2018-06-12T21:43:28.283Z,15.23
2018-06-12T21:46:00.977Z,13.40
2018-06-12T21:48:39.587Z,14.40
2018-06-12T21:51:12.774Z,11.90
2018-06-12T21:53:43.231Z,13.03
2018-06-12T21:56:19.856Z,13.20
2018-06-12T21:58:51.449Z,12.97
2018-06-12T22:01:21.566Z,14.70
2018-06-12T22:03:55.984Z,14.33
2018-06-12T22:06:33.833Z,13.40
2018-06-12T22:09:04.811Z,13.93
2018-06-12T22:11:34.477Z,13.00
2018-06-12T22:14:07.662Z,10.20
2018-06-12T22:16:38.043Z,13.13
2018-06-12T22:19:08.431Z,12.53
2018-06-12T22:21:38.173Z,10.97
2018-06-12T22:24:09.650Z,12.57
2018-06-12T22:26:41.528Z,14.77
2018-06-12T22:29:12.585Z,13.10
2018-06-12T22:31:42.036Z,12.23
2018-06-12T22:34:17.558Z,13.80
2018-06-12T22:36:49.028Z,14.60
2018-06-12T22:39:19.450Z,13.63
2018-06-12T22:41:48.913Z,15.20
2018-06-12T22:44:26.762Z,16.77
2018-06-12T22:47:03.346Z,14.53
2018-06-12T22:49:35.391Z,15.47
2018-06-12T22:52:04.774Z,15.73
2018-06-12T22:54:38.592Z,16.30
2018-06-12T22:57:13.260Z,14.30
2018-06-12T22:59:44.217Z,15.27
2018-06-12T23:02:13.617Z,16.00
2018-06-12T23:04:50.234Z,14.27
2018-06-12T23:07:27.318Z,13.63
2018-06-12T23:09:57.971Z,14.60
2018-06-12T23:12:35.837Z,15.27
2018-06-12T23:15:09.734Z,15.00
2018-06-12T23:17:45.547Z,16.40
2018-06-12T23:20:21.478Z,14.97
2018-06-12T23:22:54.205Z,17.77
2018-06-12T23:25:28.268Z,16.97
2018-06-12T23:28:03.636Z,17.47
2018-06-12T23:30:33.459Z,17.70
2018-06-12T23:33:09.838Z,17.80
2018-06-12T23:35:45.532Z,17.57
2018-06-12T23:38:20.835Z,18.67
2018-06-12T23:40:50.474Z,20.10
2018-06-12T23:43:27.500Z,16.13
2018-06-12T23:46:06.189Z,18.60
2018-06-12T23:48:45.142Z,18.93
2018-06-12T23:51:16.280Z,17.27
2018-06-12T23:53:50.193Z,17.03
2018-06-12T23:56:20.883Z,18.03
2018-06-12T23:58:53.273Z,18.80
